Time;durP1;ratioP1;P1;durP2;ratioP2;P2;SDS_P1;SDS_P2;PMS_P1;PMS_P2;Temp;Humidity;BMP_temperature;BMP_pressure;BME280_temperature;BME280_humidity;BME280_pressure;Samples;Min_cycle;Max_cycle;Signal;HPM_P1;HPM_P2
2024/03/14 00:00:47;;;;;;;31.83;16.85;;;11.80;99.90;;;;;;5088546;28;20096;-69
2024/03/14 00:03:12;;;;;;;35.95;16.80;;;11.90;99.90;;;;;;5066251;28;20320;-68
2024/03/14 00:05:38;;;;;;;37.38;17.48;;;11.90;99.90;;;;;;5062195;28;20506;-68
2024/03/14 00:08:04;;;;;;;39.03;19.13;;;11.80;99.90;;;;;;5071773;28;20036;-68
2024/03/14 00:10:30;;;;;;;37.17;18.00;;;11.80;99.90;;;;;;5071025;28;20047;-69
2024/03/14 00:12:57;;;;;;;39.15;19.65;;;11.90;99.90;;;;;;5059649;28;20043;-68
2024/03/14 00:15:22;;;;;;;38.78;19.73;;;11.80;99.90;;;;;;5068535;28;20788;-68
2024/03/14 00:17:48;;;;;;;37.50;17.90;;;11.80;99.90;;;;;;5062099;28;20039;-69
2024/03/14 00:20:14;;;;;;;37.25;18.98;;;11.80;99.90;;;;;;5077894;28;20078;-68
2024/03/14 00:22:40;;;;;;;32.75;18.27;;;11.80;99.90;;;;;;5081974;28;20056;-68
2024/03/14 00:25:15;;;;;;;39.08;19.95;;;11.80;99.90;;;;;;5085046;28;20024;-68
2024/03/14 00:27:43;;;;;;;39.20;20.08;;;11.80;99.90;;;;;;5074053;28;20057;-68
2024/03/14 00:30:11;;;;;;;40.88;20.98;;;11.80;99.90;;;;;;5082527;28;20044;-68
2024/03/14 00:32:37;;;;;;;47.47;21.33;;;11.80;99.90;;;;;;5087021;28;20032;-68
2024/03/14 00:35:03;;;;;;;41.72;20.90;;;11.80;99.90;;;;;;5077579;28;20387;-68
2024/03/14 00:37:29;;;;;;;42.40;20.90;;;11.80;99.90;;;;;;5064358;28;20248;-68
2024/03/14 00:39:55;;;;;;;46.53;21.35;;;11.80;99.90;;;;;;5081394;28;20096;-68
2024/03/14 00:42:20;;;;;;;43.63;21.20;;;11.80;99.90;;;;;;5081812;28;20028;-68
2024/03/14 00:44:46;;;;;;;41.60;20.85;;;11.80;99.90;;;;;;5073506;28;20083;-68
2024/03/14 00:47:12;;;;;;;44.17;20.10;;;11.80;99.90;;;;;;5074853;28;20036;-68
2024/03/14 00:49:38;;;;;;;41.25;20.40;;;11.80;99.90;;;;;;5078221;28;20521;-68
2024/03/14 00:52:04;;;;;;;44.25;22.10;;;11.80;99.90;;;;;;5063796;28;20039;-68
2024/03/14 00:54:31;;;;;;;47.67;22.20;;;11.80;99.90;;;;;;5061199;28;20021;-68
2024/03/14 00:56:57;;;;;;;42.13;20.70;;;11.80;99.90;;;;;;5081179;28;20032;-68
2024/03/14 00:59:23;;;;;;;40.53;20.95;;;11.80;99.90;;;;;;5059453;28;20033;-68
2024/03/14 01:01:48;;;;;;;44.20;20.50;;;11.80;99.90;;;;;;5072917;28;20025;-68
2024/03/14 01:04:14;;;;;;;41.22;20.55;;;11.80;99.90;;;;;;5070573;28;20025;-68
2024/03/14 01:06:40;;;;;;;38.42;19.48;;;11.80;99.90;;;;;;5054803;28;20046;-69
2024/03/14 01:09:07;;;;;;;44.70;20.98;;;11.80;99.90;;;;;;5055173;28;20024;-68
2024/03/14 01:11:33;;;;;;;39.03;20.30;;;11.80;99.90;;;;;;5073061;28;20036;-68
2024/03/14 01:13:59;;;;;;;41.10;20.10;;;11.80;99.90;;;;;;5065478;28;20039;-68
2024/03/14 01:16:26;;;;;;;43.42;20.27;;;11.80;99.90;;;;;;5076958;28;20033;-68
2024/03/14 01:18:52;;;;;;;40.65;19.75;;;11.80;99.90;;;;;;5078217;28;20071;-68
2024/03/14 01:21:19;;;;;;;40.60;20.05;;;11.80;99.90;;;;;;5076000;28;20024;-68
2024/03/14 01:23:44;;;;;;;40.03;20.13;;;11.90;99.90;;;;;;5057330;28;20039;-68
2024/03/14 01:26:10;;;;;;;39.90;19.20;;;11.80;99.90;;;;;;5082588;28;20591;-68
2024/03/14 01:28:35;;;;;;;45.38;19.48;;;11.80;99.90;;;;;;5075954;28;20032;-68
2024/03/14 01:31:02;;;;;;;41.50;20.33;;;11.80;99.90;;;;;;5063158;28;20039;-68
2024/03/14 01:33:28;;;;;;;40.75;20.35;;;11.80;99.90;;;;;;5078156;28;20043;-68
2024/03/14 01:35:58;;;;;;;42.53;19.77;;;11.80;99.90;;;;;;5079993;28;20032;-68
2024/03/14 01:38:24;;;;;;;42.60;19.67;;;11.80;99.90;;;;;;5086062;28;20763;-68
2024/03/14 01:40:50;;;;;;;40.03;20.35;;;11.80;99.90;;;;;;5065628;28;20038;-68
2024/03/14 01:43:15;;;;;;;37.45;18.77;;;11.80;99.90;;;;;;5082326;28;20040;-68
2024/03/14 01:45:42;;;;;;;38.10;19.08;;;11.80;99.90;;;;;;5082762;28;22032;-68
2024/03/14 01:48:09;;;;;;;40.88;19.73;;;11.80;99.90;;;;;;5063888;28;20036;-68
2024/03/14 01:50:35;;;;;;;38.75;19.23;;;11.80;99.90;;;;;;5068546;28;20120;-68
2024/03/14 01:53:00;;;;;;;39.88;19.05;;;11.80;99.90;;;;;;5056689;28;20716;-68
2024/03/14 01:55:26;;;;;;;35.08;18.38;;;11.80;99.90;;;;;;5054647;28;20521;-68
2024/03/14 01:57:52;;;;;;;37.85;18.25;;;11.80;99.90;;;;;;5061927;28;20037;-68
2024/03/14 02:00:24;;;;;;;37.97;18.35;;;11.80;99.90;;;;;;5059555;28;20027;-68
2024/03/14 02:02:50;;;;;;;40.08;19.25;;;11.80;99.90;;;;;;5073936;28;20029;-68
2024/03/14 02:05:21;;;;;;;36.20;18.95;;;11.80;99.90;;;;;;5065015;28;20043;-68
2024/03/14 02:07:49;;;;;;;37.30;17.80;;;11.80;99.90;;;;;;5069713;28;20415;-68
2024/03/14 02:10:14;;;;;;;34.50;18.02;;;11.80;99.90;;;;;;5078161;28;20111;-68
2024/03/14 02:12:41;;;;;;;37.10;18.05;;;11.80;99.90;;;;;;5080187;28;20568;-68
2024/03/14 02:15:07;;;;;;;37.15;18.83;;;11.80;99.90;;;;;;5077675;28;20025;-68
2024/03/14 02:17:34;;;;;;;35.85;17.85;;;11.80;99.90;;;;;;5077833;28;20102;-68
2024/03/14 02:20:00;;;;;;;37.85;18.65;;;11.80;99.90;;;;;;5091487;28;20500;-68
2024/03/14 02:22:27;;;;;;;37.58;17.95;;;11.80;99.90;;;;;;5077409;28;20144;-68
2024/03/14 02:24:53;;;;;;;40.22;19.35;;;11.80;99.90;;;;;;5057800;28;20102;-68
2024/03/14 02:27:22;;;;;;;41.17;18.30;;;11.80;99.90;;;;;;5058067;28;20028;-68
2024/03/14 02:29:48;;;;;;;32.20;17.02;;;11.80;99.90;;;;;;5077439;28;20035;-68
2024/03/14 02:32:14;;;;;;;34.85;17.35;;;11.80;99.90;;;;;;5093334;28;20028;-68
2024/03/14 02:34:39;;;;;;;34.92;17.35;;;11.70;99.90;;;;;;5079817;28;20047;-68
2024/03/14 02:37:05;;;;;;;33.70;18.13;;;11.70;99.90;;;;;;5075274;28;20032;-68
2024/03/14 02:39:32;;;;;;;33.92;18.00;;;11.70;99.90;;;;;;5071705;28;20020;-68
2024/03/14 02:41:59;;;;;;;35.92;17.02;;;11.70;99.90;;;;;;5074295;28;20681;-68
2024/03/14 02:44:25;;;;;;;34.03;17.35;;;11.70;99.90;;;;;;5061813;28;20371;-68
2024/03/14 02:46:51;;;;;;;32.10;17.35;;;11.80;99.90;;;;;;5059714;28;20036;-68
2024/03/14 02:49:25;;;;;;;33.67;16.77;;;11.70;99.90;;;;;;5080055;28;20028;-68
2024/03/14 02:51:50;;;;;;;32.25;16.60;;;11.70;99.90;;;;;;5050727;28;20071;-68
2024/03/14 02:54:16;;;;;;;32.53;17.05;;;11.70;99.90;;;;;;5085708;28;20060;-69
2024/03/14 02:56:43;;;;;;;29.73;15.82;;;11.70;99.90;;;;;;5081563;28;20033;-68
2024/03/14 02:59:13;;;;;;;32.80;15.23;;;11.70;99.90;;;;;;5083738;28;20086;-68
2024/03/14 03:01:39;;;;;;;30.52;15.80;;;11.70;99.90;;;;;;5090651;28;20020;-68
2024/03/14 03:04:05;;;;;;;33.60;16.52;;;11.70;99.90;;;;;;5078971;28;20093;-68
2024/03/14 03:06:33;;;;;;;31.45;15.77;;;11.70;99.90;;;;;;5068947;28;20645;-68
2024/03/14 03:08:59;;;;;;;35.78;15.73;;;11.70;99.90;;;;;;5074631;28;20035;-68
2024/03/14 03:11:24;;;;;;;32.15;16.27;;;11.70;99.90;;;;;;5076252;28;20619;-69
2024/03/14 03:13:50;;;;;;;32.80;16.27;;;11.70;99.90;;;;;;5087572;28;20032;-68
2024/03/14 03:16:16;;;;;;;29.55;14.98;;;11.70;99.90;;;;;;5065636;28;20148;-68
2024/03/14 03:18:42;;;;;;;28.05;14.77;;;11.70;99.90;;;;;;5083787;28;20043;-68
2024/03/14 03:21:08;;;;;;;33.17;16.23;;;11.70;99.90;;;;;;5067554;28;20028;-68
2024/03/14 03:23:33;;;;;;;26.17;13.95;;;11.70;99.90;;;;;;5097393;28;20036;-68
2024/03/14 03:25:59;;;;;;;31.27;15.77;;;11.70;99.90;;;;;;5087343;28;20040;-68
2024/03/14 03:28:24;;;;;;;29.98;15.07;;;11.70;99.90;;;;;;5068501;28;20157;-68
2024/03/14 03:30:50;;;;;;;29.73;15.60;;;11.70;99.90;;;;;;5074371;28;20495;-67
2024/03/14 03:33:20;;;;;;;31.95;15.55;;;11.70;99.90;;;;;;5086765;28;20012;-68
2024/03/14 03:35:46;;;;;;;29.65;15.50;;;11.70;99.90;;;;;;5069569;28;20028;-68
2024/03/14 03:38:14;;;;;;;29.67;15.68;;;11.60;99.90;;;;;;5068411;28;20029;-68
2024/03/14 03:40:41;;;;;;;29.98;15.30;;;11.60;99.90;;;;;;5053459;28;20032;-68
2024/03/14 03:43:11;;;;;;;28.40;14.82;;;11.60;99.90;;;;;;5077281;28;20029;-68
2024/03/14 03:45:36;;;;;;;29.40;14.82;;;11.60;99.90;;;;;;5067365;28;20021;-68
2024/03/14 03:48:02;;;;;;;29.40;14.52;;;11.70;99.90;;;;;;5080061;28;20021;-67
2024/03/14 03:50:28;;;;;;;26.95;14.73;;;11.60;99.90;;;;;;5094413;28;20115;-68
2024/03/14 03:52:53;;;;;;;27.58;14.10;;;11.60;99.90;;;;;;5094754;28;20023;-68
2024/03/14 03:55:19;;;;;;;28.27;14.23;;;11.60;99.90;;;;;;5083324;28;20063;-68
2024/03/14 03:57:46;;;;;;;26.48;13.25;;;11.60;99.90;;;;;;5073127;28;20039;-68
2024/03/14 04:02:57;;;;;;;26.08;14.05;;;11.60;99.90;;;;;;5076030;28;20078;-68
2024/03/14 04:05:25;;;;;;;25.15;13.07;;;11.60;99.90;;;;;;5073883;28;20045;-69
2024/03/14 04:07:52;;;;;;;25.35;13.63;;;11.60;99.90;;;;;;5079458;28;20492;-68
2024/03/14 04:10:17;;;;;;;26.80;13.65;;;11.60;99.90;;;;;;5057636;28;20044;-68
2024/03/14 04:12:44;;;;;;;27.52;13.80;;;11.60;99.90;;;;;;5078884;28;20085;-68
2024/03/14 04:15:10;;;;;;;25.13;12.90;;;11.60;99.90;;;;;;5064415;28;20040;-69
2024/03/14 04:17:37;;;;;;;26.40;13.50;;;11.60;99.90;;;;;;5083841;28;20434;-68
2024/03/14 04:20:10;;;;;;;22.35;12.73;;;11.60;99.90;;;;;;5070313;28;20075;-68
2024/03/14 04:22:42;;;;;;;25.88;13.98;;;11.60;99.90;;;;;;5080934;28;20719;-68
2024/03/14 04:25:11;;;;;;;28.48;13.70;;;11.50;99.90;;;;;;5075956;28;20032;-68
2024/03/14 04:27:39;;;;;;;24.83;12.65;;;11.50;99.90;;;;;;5062142;28;20021;-68
2024/03/14 04:30:06;;;;;;;24.45;13.02;;;11.50;99.90;;;;;;5074975;28;20025;-68
2024/03/14 04:32:32;;;;;;;24.05;12.68;;;11.50;99.90;;;;;;5076887;28;20577;-67
2024/03/14 04:34:58;;;;;;;27.80;13.82;;;11.40;99.90;;;;;;5069474;28;20067;-68
2024/03/14 04:37:25;;;;;;;28.38;14.05;;;11.40;99.90;;;;;;5077530;28;20032;-67
2024/03/14 04:39:51;;;;;;;29.80;13.90;;;11.40;99.90;;;;;;5074974;28;20032;-67
2024/03/14 04:42:17;;;;;;;25.33;12.50;;;11.40;99.90;;;;;;5074382;28;20037;-67
2024/03/14 04:44:43;;;;;;;24.27;13.18;;;11.40;99.90;;;;;;5061034;28;20051;-68
2024/03/14 04:47:10;;;;;;;29.73;13.25;;;11.30;99.90;;;;;;5078893;28;20048;-67
2024/03/14 04:49:36;;;;;;;26.75;13.55;;;11.30;99.90;;;;;;5075340;28;20107;-67
2024/03/14 04:52:04;;;;;;;23.73;13.27;;;11.30;99.90;;;;;;5060764;28;20061;-68
2024/03/14 04:54:32;;;;;;;22.30;12.93;;;11.30;99.90;;;;;;5052746;28;289413;-68
2024/03/14 04:57:01;;;;;;;24.80;12.85;;;11.30;99.90;;;;;;5067999;28;20131;-68
2024/03/14 04:59:27;;;;;;;24.65;12.90;;;11.30;99.90;;;;;;5077522;28;20620;-68
2024/03/14 05:01:53;;;;;;;29.30;13.07;;;11.30;99.90;;;;;;5078121;28;20089;-67
2024/03/14 05:04:19;;;;;;;25.38;12.77;;;11.30;99.90;;;;;;5075624;28;20727;-67
2024/03/14 05:06:46;;;;;;;26.13;13.63;;;11.20;99.90;;;;;;5077657;28;20108;-67
2024/03/14 05:09:11;;;;;;;24.90;12.95;;;11.20;99.90;;;;;;5076118;28;20043;-67
2024/03/14 05:11:37;;;;;;;25.80;12.52;;;11.20;99.90;;;;;;5079719;28;20051;-67
2024/03/14 05:14:04;;;;;;;26.00;13.85;;;11.20;99.90;;;;;;5072136;28;20063;-68
2024/03/14 05:16:30;;;;;;;24.80;12.23;;;11.20;99.90;;;;;;5063115;28;20028;-67
2024/03/14 05:18:56;;;;;;;21.38;12.02;;;11.20;99.90;;;;;;5056516;28;20043;-67
2024/03/14 05:21:21;;;;;;;25.38;13.13;;;11.20;99.90;;;;;;5058388;28;20024;-67
2024/03/14 05:23:47;;;;;;;24.88;13.13;;;11.10;99.90;;;;;;5076452;28;20378;-68
2024/03/14 05:26:12;;;;;;;28.85;13.30;;;11.10;99.90;;;;;;5072033;28;20179;-69
2024/03/14 05:28:38;;;;;;;27.98;13.10;;;11.20;99.90;;;;;;5076650;28;20070;-68
2024/03/14 05:31:05;;;;;;;24.00;12.55;;;11.10;99.90;;;;;;5075007;28;20051;-68
2024/03/14 05:33:30;;;;;;;25.20;12.07;;;11.10;99.90;;;;;;5074707;28;20032;-69
2024/03/14 05:35:56;;;;;;;23.27;12.30;;;11.10;99.90;;;;;;5062422;28;20027;-68
2024/03/14 05:38:21;;;;;;;22.80;12.70;;;11.10;99.90;;;;;;5074970;28;20031;-67
2024/03/14 05:40:47;;;;;;;23.35;12.00;;;11.10;99.90;;;;;;5062406;28;20032;-67
2024/03/14 05:43:13;;;;;;;24.23;12.25;;;11.10;99.90;;;;;;5063101;28;20447;-67
2024/03/14 05:45:38;;;;;;;25.55;13.07;;;11.10;99.90;;;;;;5077033;28;20031;-68
2024/03/14 05:48:15;;;;;;;29.98;13.32;;;11.10;99.90;;;;;;5085486;28;20504;-67
2024/03/14 05:50:44;;;;;;;27.75;12.77;;;11.00;99.90;;;;;;5077292;28;20112;-68
2024/03/14 05:53:10;;;;;;;28.65;14.15;;;11.10;99.90;;;;;;5077175;28;20044;-68
2024/03/14 05:55:36;;;;;;;25.05;13.20;;;11.00;99.90;;;;;;5084380;28;20039;-67
2024/03/14 05:58:02;;;;;;;24.77;13.80;;;11.10;99.90;;;;;;5088740;28;20031;-67
2024/03/14 06:00:29;;;;;;;26.88;13.48;;;11.10;99.90;;;;;;5089404;28;20178;-67
2024/03/14 06:02:54;;;;;;;28.50;14.10;;;11.10;99.90;;;;;;5074201;28;20821;-67
2024/03/14 06:05:20;;;;;;;28.33;13.32;;;11.10;99.90;;;;;;5075114;28;20119;-67
2024/03/14 06:07:46;;;;;;;29.98;13.55;;;11.10;99.90;;;;;;5078046;28;20039;-67
2024/03/14 06:10:14;;;;;;;29.50;14.60;;;11.20;99.90;;;;;;5082234;28;20106;-67
2024/03/14 06:12:45;;;;;;;27.98;14.65;;;11.20;99.90;;;;;;5078584;28;20062;-68
2024/03/14 06:15:12;;;;;;;29.10;13.63;;;11.20;99.90;;;;;;5081977;28;20082;-68
2024/03/14 06:17:38;;;;;;;27.58;14.05;;;11.20;99.90;;;;;;5062121;28;20062;-68
2024/03/14 06:20:09;;;;;;;30.17;14.25;;;11.30;99.90;;;;;;5071896;28;20024;-69
2024/03/14 06:22:44;;;;;;;31.60;14.25;;;11.20;99.90;;;;;;5068930;28;20077;-69
2024/03/14 06:25:10;;;;;;;26.67;13.45;;;11.30;99.90;;;;;;5073945;28;20059;-69
2024/03/14 06:27:36;;;;;;;26.20;13.90;;;11.30;99.90;;;;;;5073950;28;20117;-69
2024/03/14 06:30:09;;;;;;;27.02;14.75;;;11.30;99.90;;;;;;5081124;28;20519;-68
2024/03/14 06:32:36;;;;;;;22.58;12.80;;;11.30;99.90;;;;;;5058057;28;20036;-68
2024/03/14 06:35:03;;;;;;;29.85;13.82;;;11.30;99.90;;;;;;5081378;28;20036;-68
2024/03/14 06:37:29;;;;;;;33.60;14.15;;;11.40;99.90;;;;;;5072014;28;20550;-68
2024/03/14 06:39:54;;;;;;;31.45;14.38;;;11.40;99.90;;;;;;5076053;28;20687;-69
2024/03/14 06:42:20;;;;;;;29.98;14.80;;;11.40;99.90;;;;;;5058444;28;20063;-69
2024/03/14 06:44:47;;;;;;;29.83;13.98;;;11.40;99.90;;;;;;5095279;28;20035;-69
2024/03/14 06:47:13;;;;;;;28.15;14.77;;;11.50;99.90;;;;;;5075175;28;20119;-70
2024/03/14 06:49:42;;;;;;;25.75;14.18;;;11.50;99.90;;;;;;5077686;28;20116;-69
2024/03/14 06:52:09;;;;;;;27.02;14.73;;;11.50;99.90;;;;;;5073767;28;20025;-68
2024/03/14 06:54:35;;;;;;;31.95;14.30;;;11.60;99.90;;;;;;5075551;28;20024;-69
2024/03/14 06:57:01;;;;;;;27.92;14.55;;;11.60;99.90;;;;;;5057213;28;20023;-68
2024/03/14 06:59:27;;;;;;;30.38;14.60;;;11.60;99.90;;;;;;5075373;28;20051;-69
2024/03/14 07:01:54;;;;;;;27.88;14.50;;;11.70;99.90;;;;;;5080481;28;20044;-68
2024/03/14 07:04:20;;;;;;;29.67;15.23;;;11.60;99.90;;;;;;5074706;28;20025;-69
2024/03/14 07:06:46;;;;;;;30.33;15.57;;;11.70;99.90;;;;;;5084392;28;20047;-69
2024/03/14 07:09:17;;;;;;;26.55;14.48;;;11.70;99.90;;;;;;5078719;28;20020;-68
2024/03/14 07:11:45;;;;;;;33.85;14.70;;;11.70;99.90;;;;;;5077617;28;20066;-70
2024/03/14 07:14:11;;;;;;;28.13;14.63;;;11.70;99.90;;;;;;5064020;28;20033;-69
2024/03/14 07:16:38;;;;;;;23.55;13.20;;;11.70;99.90;;;;;;5078917;28;20101;-70
2024/03/14 07:19:07;;;;;;;29.05;14.43;;;11.70;99.90;;;;;;5056067;28;20033;-69
2024/03/14 07:21:33;;;;;;;26.15;14.38;;;11.80;99.90;;;;;;5076392;28;20087;-69
2024/03/14 07:23:59;;;;;;;26.08;13.68;;;11.70;99.90;;;;;;5077824;28;20107;-70
2024/03/14 07:26:32;;;;;;;29.50;14.52;;;11.80;99.90;;;;;;5067999;28;20067;-70
2024/03/14 07:28:58;;;;;;;27.42;14.57;;;11.80;99.90;;;;;;5080603;28;20037;-69
2024/03/14 07:31:28;;;;;;;25.50;13.40;;;11.80;99.90;;;;;;5059540;28;20450;-70
2024/03/14 07:33:54;;;;;;;28.15;13.82;;;11.80;99.90;;;;;;5076380;28;20071;-69
2024/03/14 07:36:20;;;;;;;23.52;14.07;;;12.00;99.90;;;;;;5082607;28;20444;-69
2024/03/14 07:38:47;;;;;;;26.42;13.57;;;11.90;99.90;;;;;;5058926;28;20040;-69
2024/03/14 07:41:20;;;;;;;33.35;16.35;;;12.00;99.90;;;;;;5074194;28;20071;-69
2024/03/14 07:43:46;;;;;;;27.27;14.15;;;12.00;99.90;;;;;;5084759;28;20043;-69
2024/03/14 07:46:12;;;;;;;27.92;14.30;;;12.00;99.90;;;;;;5081745;28;20037;-69
2024/03/14 07:48:38;;;;;;;27.92;15.45;;;12.10;99.90;;;;;;5078112;28;20594;-69
2024/03/14 07:51:06;;;;;;;26.80;15.13;;;12.10;99.90;;;;;;5080411;28;20029;-68
2024/03/14 07:53:33;;;;;;;26.55;13.43;;;12.20;99.90;;;;;;5083401;28;20043;-68
2024/03/14 07:55:59;;;;;;;23.30;13.20;;;12.20;99.90;;;;;;5080660;28;20075;-68
2024/03/14 07:58:25;;;;;;;26.23;13.40;;;12.30;99.90;;;;;;5079044;28;20056;-68
2024/03/14 08:00:52;;;;;;;24.42;13.90;;;12.40;99.90;;;;;;5079520;28;20269;-69
2024/03/14 08:03:19;;;;;;;21.20;12.83;;;12.40;99.90;;;;;;5069321;28;20627;-69
2024/03/14 08:05:50;;;;;;;28.85;13.80;;;12.50;99.90;;;;;;5079926;28;20401;-68
2024/03/14 08:08:17;;;;;;;23.48;13.30;;;12.50;99.90;;;;;;5065847;28;20048;-69
2024/03/14 08:10:45;;;;;;;25.88;14.07;;;12.60;99.90;;;;;;5059617;28;20044;-68
2024/03/14 08:13:17;;;;;;;;;;;12.60;99.90;;;;;;5082623;28;20513;-69
2024/03/14 08:15:52;;;;;;;23.52;13.93;;;12.70;99.90;;;;;;5062422;28;19964;-70
2024/03/14 08:18:20;;;;;;;28.13;14.30;;;12.70;99.90;;;;;;5056402;28;20028;-69
2024/03/14 08:20:47;;;;;;;;;;;12.80;99.90;;;;;;5068754;28;20435;-69
2024/03/14 08:23:16;;;;;;;24.90;13.33;;;12.90;99.90;;;;;;5056965;28;19912;-69
2024/03/14 08:25:46;;;;;;;23.35;12.82;;;13.00;99.90;;;;;;5059855;28;20265;-69
2024/03/14 08:28:11;;;;;;;23.30;12.65;;;13.00;99.90;;;;;;5061132;28;20024;-69
2024/03/14 08:30:39;;;;;;;22.20;12.63;;;13.00;99.90;;;;;;5077502;28;20043;-69
2024/03/14 08:33:06;;;;;;;22.90;12.87;;;13.10;99.90;;;;;;5083644;28;20025;-69
2024/03/14 08:35:33;;;;;;;24.50;12.43;;;13.20;99.90;;;;;;5089955;28;20032;-68
2024/03/14 08:37:58;;;;;;;24.65;12.95;;;13.20;99.90;;;;;;5064022;28;20044;-69
2024/03/14 08:40:24;;;;;;;19.98;11.45;;;13.30;99.90;;;;;;5082274;28;20029;-69
2024/03/14 08:42:52;;;;;;;23.70;12.70;;;13.30;99.90;;;;;;5063301;28;20036;-69
2024/03/14 08:45:18;;;;;;;20.08;11.48;;;13.40;99.90;;;;;;5079224;28;20028;-69
2024/03/14 08:47:44;;;;;;;23.33;12.43;;;13.30;99.90;;;;;;5082057;28;20032;-69
2024/03/14 08:50:10;;;;;;;25.63;11.48;;;13.20;99.90;;;;;;5077221;28;20551;-69
2024/03/14 08:52:37;;;;;;;20.08;11.07;;;13.30;99.90;;;;;;5059171;28;20386;-69
2024/03/14 08:55:23;;;;;;;22.15;11.48;;;13.30;99.90;;;;;;5058123;28;20042;-69
2024/03/14 08:57:51;;;;;;;22.15;11.98;;;13.30;99.90;;;;;;5042949;28;20408;-69
2024/03/14 09:00:21;;;;;;;17.92;10.82;;;13.30;99.90;;;;;;5059961;28;20025;-69
2024/03/14 09:02:48;;;;;;;21.90;11.30;;;13.40;99.90;;;;;;5078328;28;20057;-69
2024/03/14 09:05:14;;;;;;;24.33;11.48;;;13.50;99.90;;;;;;5066559;28;20158;-69
2024/03/14 09:07:41;;;;;;;21.90;12.23;;;13.50;99.90;;;;;;5077241;28;20135;-69
2024/03/14 09:10:16;;;;;;;19.55;11.52;;;13.50;99.90;;;;;;5065988;28;20101;-69
2024/03/14 09:12:43;;;;;;;20.73;10.90;;;13.60;99.90;;;;;;5070989;28;20034;-69
2024/03/14 09:15:09;;;;;;;18.70;11.23;;;13.60;99.90;;;;;;5080390;28;20044;-69
2024/03/14 09:17:36;;;;;;;20.05;11.38;;;13.60;99.90;;;;;;5078308;28;20024;-69
2024/03/14 09:20:05;;;;;;;15.98;9.85;;;13.70;99.90;;;;;;5081719;28;20038;-70
2024/03/14 09:22:31;;;;;;;22.30;11.30;;;13.70;99.90;;;;;;5074627;28;20032;-69
2024/03/14 09:24:57;;;;;;;17.10;9.68;;;13.70;99.90;;;;;;5077992;28;20043;-70
2024/03/14 09:27:23;;;;;;;19.00;10.02;;;13.70;99.90;;;;;;5083827;28;20081;-69
2024/03/14 09:29:54;;;;;;;16.88;9.80;;;13.80;99.90;;;;;;5083535;28;20051;-69
2024/03/14 09:32:23;;;;;;;19.38;9.85;;;13.80;99.90;;;;;;5070280;28;20036;-69
2024/03/14 09:34:49;;;;;;;16.77;9.85;;;13.90;99.90;;;;;;5060255;28;20128;-69
2024/03/14 09:37:16;;;;;;;18.13;10.27;;;14.00;99.90;;;;;;5060243;28;20032;-69
2024/03/14 09:39:42;;;;;;;20.35;10.23;;;14.10;99.90;;;;;;5078403;28;20034;-69
2024/03/14 09:42:08;;;;;;;16.63;9.40;;;14.10;99.90;;;;;;5062417;28;20031;-68
2024/03/14 09:44:37;;;;;;;20.40;9.50;;;14.30;99.90;;;;;;5075893;28;20032;-69
2024/03/14 09:47:17;;;;;;;19.55;9.50;;;14.30;99.90;;;;;;5061352;28;20028;-69
2024/03/14 09:49:48;;;;;;;16.50;8.57;;;14.40;99.90;;;;;;5080954;28;20515;-69
2024/03/14 09:52:14;;;;;;;12.95;7.25;;;14.60;99.90;;;;;;5078347;28;20040;-69
2024/03/14 09:54:40;;;;;;;15.02;8.55;;;14.70;99.90;;;;;;5079949;28;20047;-70
2024/03/14 09:57:06;;;;;;;16.25;8.45;;;14.70;99.90;;;;;;5078728;28;20016;-69
2024/03/14 09:59:32;;;;;;;12.57;7.15;;;14.80;99.90;;;;;;5060833;28;20035;-68
2024/03/14 10:01:58;;;;;;;17.48;7.03;;;14.80;99.90;;;;;;5062284;28;20111;-70
2024/03/14 10:04:24;;;;;;;9.73;6.28;;;14.90;99.90;;;;;;5056298;28;20119;-70
2024/03/14 10:06:50;;;;;;;12.07;7.70;;;15.00;99.90;;;;;;5072015;28;20118;-69
2024/03/14 10:09:22;;;;;;;10.40;7.18;;;15.10;99.90;;;;;;5067007;28;20027;-69
2024/03/14 10:11:48;;;;;;;14.32;7.47;;;15.30;99.90;;;;;;5080437;28;20106;-70
2024/03/14 10:14:20;;;;;;;12.05;6.72;;;15.40;99.90;;;;;;5077593;28;20040;-69
2024/03/14 10:16:46;;;;;;;11.50;5.95;;;15.60;99.90;;;;;;5075951;28;20556;-70
2024/03/14 10:19:12;;;;;;;7.78;4.85;;;15.70;99.90;;;;;;5063775;28;20111;-69
2024/03/14 10:21:38;;;;;;;8.02;4.93;;;15.90;99.90;;;;;;5081322;28;20039;-69
2024/03/14 10:24:09;;;;;;;13.40;7.03;;;15.90;99.90;;;;;;5082432;28;20039;-69
2024/03/14 10:26:37;;;;;;;8.35;5.07;;;15.80;99.90;;;;;;5082821;28;20032;-69
2024/03/14 10:29:03;;;;;;;12.32;5.25;;;16.00;99.90;;;;;;5065402;28;20078;-69
2024/03/14 10:31:29;;;;;;;7.20;2.80;;;16.30;99.90;;;;;;5074992;28;20071;-69
2024/03/14 10:33:54;;;;;;;5.75;3.17;;;16.50;99.90;;;;;;5065708;28;20872;-69
2024/03/14 10:36:22;;;;;;;6.88;3.30;;;16.60;98.90;;;;;;5075557;28;20017;-69
2024/03/14 10:38:50;;;;;;;5.65;3.58;;;17.10;99.90;;;;;;5083115;28;20036;-69
2024/03/14 10:41:17;;;;;;;8.52;4.30;;;17.30;98.80;;;;;;5082873;28;21533;-69
2024/03/14 10:43:54;;;;;;;8.52;5.15;;;17.30;98.30;;;;;;5065016;28;20032;-70
2024/03/14 10:46:19;;;;;;;9.65;4.18;;;17.50;98.90;;;;;;5079719;28;20032;-69
2024/03/14 10:48:47;;;;;;;7.60;5.00;;;17.70;98.10;;;;;;5081967;28;20549;-70
2024/03/14 10:51:13;;;;;;;;;;;17.90;98.00;;;;;;5080099;28;20055;-70
2024/03/14 10:53:40;;;;;;;12.05;6.63;;;17.90;98.30;;;;;;5077817;28;20415;-70
2024/03/14 10:56:15;;;;;;;10.85;6.40;;;18.10;98.60;;;;;;5072861;28;20032;-70
2024/03/14 10:58:43;;;;;;;9.98;6.65;;;18.40;98.80;;;;;;5066162;28;20588;-69
2024/03/14 11:01:10;;;;;;;;;;;18.60;99.10;;;;;;5065081;28;20584;-70
2024/03/14 11:03:38;;;;;;;10.23;6.90;;;18.70;98.40;;;;;;5059057;28;19954;-70
2024/03/14 11:06:12;;;;;;;8.70;5.88;;;18.70;96.80;;;;;;5075861;28;20052;-70
2024/03/14 11:08:43;;;;;;;10.82;6.35;;;18.80;98.20;;;;;;5068318;28;20068;-69
2024/03/14 11:11:12;;;;;;;15.00;7.07;;;19.20;97.70;;;;;;5078793;28;20111;-69
2024/03/14 11:13:47;;;;;;;9.85;6.53;;;19.30;97.20;;;;;;5082565;28;20040;-70
2024/03/14 11:16:15;;;;;;;9.98;6.05;;;19.50;97.70;;;;;;5077827;28;20062;-70
2024/03/14 11:18:52;;;;;;;7.78;5.07;;;19.30;96.70;;;;;;5056867;28;20158;-70
2024/03/14 11:21:23;;;;;;;8.25;5.38;;;19.60;96.00;;;;;;5058858;28;20031;-70
2024/03/14 11:23:50;;;;;;;9.60;5.45;;;20.10;95.80;;;;;;5064978;28;20179;-70
2024/03/14 11:26:17;;;;;;;9.50;5.05;;;20.10;95.90;;;;;;5077665;28;20028;-69
2024/03/14 11:28:45;;;;;;;8.00;4.97;;;20.50;95.00;;;;;;5083646;28;20704;-70
2024/03/14 11:31:11;;;;;;;7.03;4.90;;;20.40;95.40;;;;;;5084724;28;20032;-70
2024/03/14 11:33:36;;;;;;;6.88;4.88;;;20.60;94.80;;;;;;5074152;28;20084;-70
2024/03/14 11:36:05;;;;;;;9.75;5.82;;;20.70;94.20;;;;;;5083233;28;20144;-71
2024/03/14 11:38:30;;;;;;;6.95;4.88;;;20.60;94.50;;;;;;5083277;28;20512;-70
2024/03/14 11:41:01;;;;;;;8.23;5.03;;;20.90;94.30;;;;;;5081611;28;20508;-71
2024/03/14 11:43:27;;;;;;;8.52;5.18;;;21.00;94.00;;;;;;5061858;28;20041;-70
2024/03/14 11:45:57;;;;;;;7.75;5.80;;;20.90;94.00;;;;;;5081510;28;20071;-71
2024/03/14 11:48:24;;;;;;;6.72;5.03;;;20.90;93.30;;;;;;5084100;28;20039;-71
2024/03/14 11:50:52;;;;;;;10.23;5.55;;;21.10;93.30;;;;;;5063709;28;20033;-70
2024/03/14 11:53:20;;;;;;;7.47;4.93;;;20.90;93.60;;;;;;5064810;28;20025;-70
2024/03/14 11:55:49;;;;;;;7.22;4.70;;;21.00;93.40;;;;;;5062204;28;20076;-70
2024/03/14 11:58:16;;;;;;;7.28;5.57;;;21.10;93.30;;;;;;5059379;28;20570;-70
2024/03/14 12:00:52;;;;;;;8.67;5.80;;;21.00;92.80;;;;;;5068691;28;20028;-70
2024/03/14 12:03:18;;;;;;;12.60;6.07;;;21.20;92.80;;;;;;5060606;28;20765;-70
2024/03/14 12:05:53;;;;;;;8.20;5.40;;;21.30;93.00;;;;;;5067483;28;20524;-70
2024/03/14 12:08:19;;;;;;;8.13;5.22;;;21.40;92.40;;;;;;5078042;28;20526;-71
2024/03/14 12:10:50;;;;;;;9.23;5.18;;;21.40;92.50;;;;;;5068962;28;20028;-68
2024/03/14 12:13:19;;;;;;;7.97;5.38;;;21.50;92.90;;;;;;5067529;28;20037;-69
2024/03/14 12:15:45;;;;;;;6.82;5.10;;;21.80;92.90;;;;;;5062685;28;20074;-69
2024/03/14 12:18:12;;;;;;;11.50;5.20;;;22.20;93.50;;;;;;5060064;28;20029;-69
2024/03/14 12:20:46;;;;;;;10.45;5.35;;;22.20;92.20;;;;;;5062996;28;20039;-69
2024/03/14 12:23:11;;;;;;;8.95;5.90;;;22.30;92.00;;;;;;5064973;28;20028;-69
2024/03/14 12:25:38;;;;;;;9.75;5.70;;;22.30;91.10;;;;;;5061732;28;20087;-69
2024/03/14 12:28:05;;;;;;;7.18;5.55;;;22.30;92.20;;;;;;5070297;28;20060;-69
2024/03/14 12:30:36;;;;;;;5.73;5.10;;;22.50;91.80;;;;;;5081025;28;20103;-70
2024/03/14 12:33:02;;;;;;;9.23;5.57;;;22.50;91.50;;;;;;5078402;28;20024;-69
2024/03/14 12:35:28;;;;;;;7.93;6.10;;;22.50;92.30;;;;;;5063817;28;20044;-70